Time;durP1;ratioP1;P1;durP2;ratioP2;P2;SDS_P1;SDS_P2;PMS_P1;PMS_P2;Temp;Humidity;BMP_temperature;BMP_pressure;BME280_temperature;BME280_humidity;BME280_pressure;Samples;Min_cycle;Max_cycle;Signal;HPM_P1;HPM_P2
2022/07/17 00:03:48;;;;;;;2.38;0.80;;;;;;;13.19;76.57;100597.75;10558410;28;20434;-76
2022/07/17 00:08:52;;;;;;;1.00;0.80;;;;;;;13.15;76.66;100599.41;10595576;28;20032;-76
2022/07/17 00:13:54;;;;;;;1.92;0.77;;;;;;;13.13;77.30;100600.84;10581191;28;20040;-76
2022/07/17 00:18:56;;;;;;;1.98;0.98;;;;;;;13.09;76.99;100608.88;10560493;28;20573;-76
2022/07/17 00:23:59;;;;;;;3.85;0.90;;;;;;;13.07;77.19;100611.13;10556690;28;20044;-75
2022/07/17 00:29:03;;;;;;;1.10;0.77;;;;;;;13.03;77.50;100610.09;10572714;28;20415;-75
2022/07/17 00:34:06;;;;;;;2.83;0.80;;;;;;;13.08;77.14;100606.44;10572819;28;20529;-76
2022/07/17 00:39:08;;;;;;;1.02;0.70;;;;;;;13.01;77.11;100595.78;10569870;28;20043;-76
2022/07/17 00:44:12;;;;;;;1.83;0.80;;;;;;;13.02;77.02;100602.13;10573726;28;20165;-75
2022/07/17 00:49:15;;;;;;;0.60;0.57;;;;;;;12.98;76.68;100597.19;10572824;28;20067;-75
2022/07/17 00:54:18;;;;;;;1.65;0.93;;;;;;;12.96;77.26;100591.16;10562579;28;20055;-75
2022/07/17 00:59:20;;;;;;;0.95;0.73;;;;;;;12.91;77.32;100585.75;10550837;28;20040;-75
2022/07/17 01:04:23;;;;;;;0.68;0.52;;;;;;;12.86;76.78;100594.09;10552726;28;20039;-75
2022/07/17 01:09:26;;;;;;;1.27;0.93;;;;;;;12.85;77.03;100599.91;10575287;28;20032;-75
2022/07/17 01:14:28;;;;;;;0.90;0.70;;;;;;;12.87;77.41;100600.41;10574475;28;20139;-75
2022/07/17 01:19:31;;;;;;;2.13;0.80;;;;;;;12.86;76.73;100602.34;10556580;28;20052;-75
2022/07/17 01:24:33;;;;;;;2.45;0.88;;;;;;;12.87;77.66;100605.94;10579231;28;20043;-75
2022/07/17 01:29:36;;;;;;;2.80;0.80;;;;;;;12.90;76.81;100600.63;10571843;28;20615;-75
2022/07/17 01:34:38;;;;;;;1.08;0.50;;;;;;;12.94;77.45;100590.66;10534684;28;20036;-75
2022/07/17 01:39:53;;;;;;;1.08;0.60;;;;;;;12.96;77.58;100598.63;10547530;28;20046;-75
2022/07/17 01:44:55;;;;;;;1.15;0.60;;;;;;;13.00;76.92;100594.13;10551506;28;20062;-75
2022/07/17 01:49:58;;;;;;;1.83;0.90;;;;;;;13.05;77.22;100591.34;10578622;28;20043;-75
2022/07/17 01:55:00;;;;;;;1.33;0.90;;;;;;;13.03;76.46;100596.31;10553530;28;20051;-75
2022/07/17 02:00:08;;;;;;;0.93;0.90;;;;;;;13.08;76.18;100587.97;10570332;28;20050;-74
2022/07/17 02:05:10;;;;;;;1.60;1.00;;;;;;;13.30;76.25;100586.56;10570572;28;20047;-75
2022/07/17 02:10:16;;;;;;;1.45;0.82;;;;;;;13.53;75.53;100580.91;10530256;28;20056;-75
2022/07/17 02:15:18;;;;;;;1.10;0.70;;;;;;;13.85;74.83;100585.56;10569303;28;20055;-74
2022/07/17 02:20:21;;;;;;;2.55;1.00;;;;;;;14.19;73.64;100582.44;10568795;28;20058;-75
2022/07/17 02:25:23;;;;;;;1.42;1.27;;;;;;;14.50;72.05;100587.34;10568456;28;20047;-75
2022/07/17 02:30:26;;;;;;;1.50;1.15;;;;;;;14.71;70.70;100580.25;10552576;28;20039;-75
2022/07/17 02:35:28;;;;;;;1.38;0.95;;;;;;;14.98;69.83;100586.84;10525143;28;20541;-75
2022/07/17 02:40:30;;;;;;;1.48;0.90;;;;;;;15.07;68.79;100585.78;10506813;28;20529;-75
2022/07/17 02:45:32;;;;;;;3.05;0.95;;;;;;;15.22;68.99;100592.91;10557587;28;20043;-75
2022/07/17 02:50:35;;;;;;;1.77;0.82;;;;;;;15.40;67.92;100585.56;10523080;28;20055;-75
2022/07/17 02:55:37;;;;;;;1.45;0.88;;;;;;;15.52;67.32;100596.06;10552723;28;20048;-75
2022/07/17 03:00:40;;;;;;;0.95;0.80;;;;;;;15.66;67.07;100586.59;10532310;28;20043;-75
2022/07/17 03:05:42;;;;;;;1.95;0.90;;;;;;;15.80;66.61;100597.56;10526973;28;20036;-75
2022/07/17 03:10:44;;;;;;;2.47;0.98;;;;;;;15.72;66.51;100600.28;10532461;28;20032;-75
2022/07/17 03:15:46;;;;;;;1.20;0.75;;;;;;;15.52;66.69;100591.34;10532036;28;20581;-75
2022/07/17 03:20:49;;;;;;;2.00;1.10;;;;;;;15.35;67.30;100591.22;10504352;28;20032;-75
2022/07/17 03:25:51;;;;;;;1.55;0.95;;;;;;;15.21;67.66;100591.28;10531983;28;20507;-75
2022/07/17 03:30:53;;;;;;;1.10;0.75;;;;;;;15.13;68.32;100594.78;10531562;28;20119;-75
2022/07/17 03:35:56;;;;;;;1.10;1.00;;;;;;;15.17;68.91;100594.97;10575671;28;20040;-75
2022/07/17 03:40:58;;;;;;;1.95;0.80;;;;;;;15.89;67.13;100605.91;10575084;28;20051;-75
2022/07/17 03:46:01;;;;;;;2.08;0.80;;;;;;;15.91;66.60;100609.16;10555281;28;20510;-75
2022/07/17 03:51:03;;;;;;;3.72;0.85;;;;;;;16.01;66.26;100599.78;10577863;28;20048;-75
2022/07/17 03:56:06;;;;;;;1.77;0.93;;;;;;;15.99;65.79;100600.09;10563754;28;20044;-75
2022/07/17 04:01:08;;;;;;;1.52;0.63;;;;;;;15.96;66.22;100601.53;10557898;28;20059;-75
2022/07/17 04:06:11;;;;;;;1.08;0.95;;;;;;;16.16;65.40;100599.38;10582123;28;20035;-75
2022/07/17 04:11:13;;;;;;;1.50;0.90;;;;;;;16.87;64.27;100597.31;10569933;28;20503;-75
2022/07/17 04:16:15;;;;;;;1.50;0.82;;;;;;;17.52;62.38;100595.47;10575000;28;20048;-74
2022/07/17 04:21:18;;;;;;;1.25;0.63;;;;;;;17.95;60.38;100590.69;10556963;28;20048;-75
2022/07/17 04:26:20;;;;;;;0.60;0.60;;;;;;;18.43;58.70;100591.47;10577467;28;20032;-75
2022/07/17 04:31:22;;;;;;;2.40;0.93;;;;;;;18.66;58.03;100590.03;10573207;28;20048;-75
2022/07/17 04:36:25;;;;;;;0.95;0.75;;;;;;;19.22;56.82;100588.63;10552506;28;20486;-75
2022/07/17 04:41:27;;;;;;;1.95;0.77;;;;;;;19.47;55.31;100589.56;10575249;28;20049;-75
2022/07/17 04:46:29;;;;;;;1.55;0.82;;;;;;;20.07;54.10;100585.31;10575396;28;20090;-74
2022/07/17 04:51:32;;;;;;;1.85;1.00;;;;;;;20.41;52.71;100588.84;10559142;28;20035;-75
2022/07/17 04:56:34;;;;;;;0.70;0.60;;;;;;;20.61;52.32;100589.88;10582048;28;20054;-75
2022/07/17 05:01:36;;;;;;;1.50;0.70;;;;;;;21.20;50.35;100584.53;10567348;28;20032;-75
2022/07/17 05:06:39;;;;;;;1.38;0.75;;;;;;;21.59;49.56;100588.47;10552677;28;20051;-74
2022/07/17 05:11:42;;;;;;;1.77;0.80;;;;;;;21.92;48.44;100596.56;10584660;28;20047;-75
2022/07/17 05:16:44;;;;;;;1.25;0.73;;;;;;;21.85;48.85;100595.53;10571801;28;20038;-75
2022/07/17 05:21:46;;;;;;;1.08;0.45;;;;;;;22.11;48.07;100590.28;10569228;28;20062;-75
2022/07/17 05:26:48;;;;;;;0.98;0.63;;;;;;;22.51;48.53;100589.25;10564773;28;20059;-75
2022/07/17 05:31:51;;;;;;;0.52;0.50;;;;;;;23.17;46.67;100589.19;10569686;28;20051;-75
2022/07/17 05:36:53;;;;;;;1.08;0.80;;;;;;;23.43;45.37;100593.34;10574635;28;20098;-75
2022/07/17 05:41:55;;;;;;;1.83;0.65;;;;;;;23.46;46.18;100587.00;10564310;28;20039;-74
2022/07/17 05:46:58;;;;;;;0.82;0.70;;;;;;;23.56;45.01;100591.19;10568287;28;20036;-75
2022/07/17 05:52:00;;;;;;;1.08;0.60;;;;;;;24.05;45.29;100588.53;10553859;28;20418;-75
2022/07/17 05:57:03;;;;;;;0.50;0.45;;;;;;;24.27;44.01;100587.69;10566838;28;20529;-75
2022/07/17 06:02:06;;;;;;;1.60;0.50;;;;;;;24.04;44.22;100587.72;10548241;28;20048;-75
2022/07/17 06:07:08;;;;;;;1.13;0.50;;;;;;;24.31;43.90;100587.81;10547744;28;20036;-75
2022/07/17 06:12:10;;;;;;;0.88;0.50;;;;;;;24.26;44.64;100585.28;10549447;28;20043;-75
2022/07/17 06:17:13;;;;;;;0.40;0.40;;;;;;;24.15;44.56;100585.13;10540568;28;20035;-74
2022/07/17 06:22:16;;;;;;;0.70;0.52;;;;;;;24.10;44.34;100588.22;10571708;28;20036;-75
2022/07/17 06:27:18;;;;;;;0.50;0.50;;;;;;;24.42;43.99;100582.34;10569801;28;20048;-75
2022/07/17 06:32:21;;;;;;;0.45;0.45;;;;;;;24.57;43.17;100589.81;10571515;28;20052;-75
2022/07/17 06:37:23;;;;;;;0.38;0.38;;;;;;;24.86;42.29;100585.44;10567060;28;20040;-75
2022/07/17 06:42:25;;;;;;;1.50;0.50;;;;;;;24.71;41.80;100587.22;10575122;28;20043;-75
2022/07/17 06:47:27;;;;;;;1.65;0.60;;;;;;;25.12;41.95;100596.66;10564749;28;20506;-75
2022/07/17 06:52:29;;;;;;;1.35;0.60;;;;;;;25.18;41.27;100592.34;10567610;28;20388;-75
2022/07/17 06:57:32;;;;;;;0.93;0.40;;;;;;;25.48;40.54;100595.09;10567093;28;20501;-75
2022/07/17 07:02:35;;;;;;;1.08;0.50;;;;;;;25.20;41.64;100594.75;10548260;28;20690;-75
2022/07/17 07:07:37;;;;;;;0.50;0.50;;;;;;;25.57;40.73;100592.00;10548426;28;20403;-75
2022/07/17 07:12:40;;;;;;;1.73;0.40;;;;;;;25.65;39.87;100587.25;10548935;28;20039;-75
2022/07/17 07:17:42;;;;;;;0.60;0.47;;;;;;;24.68;39.32;100595.59;10565558;28;20517;-75
2022/07/17 07:22:45;;;;;;;0.63;0.40;;;;;;;23.59;40.80;100587.66;10568053;28;20042;-75
2022/07/17 07:27:47;;;;;;;0.50;0.50;;;;;;;23.19;42.38;100585.22;10545251;28;20048;-75
2022/07/17 07:32:49;;;;;;;0.82;0.40;;;;;;;23.64;42.16;100582.59;10565215;28;20048;-75
2022/07/17 07:37:51;;;;;;;0.95;0.50;;;;;;;23.23;42.33;100589.72;10562915;28;20036;-75
2022/07/17 07:42:54;;;;;;;0.40;0.40;;;;;;;23.53;43.13;100584.31;10555752;28;20040;-75
2022/07/17 07:47:56;;;;;;;0.50;0.50;;;;;;;24.33;41.80;100589.06;10563345;28;20043;-75
2022/07/17 07:52:58;;;;;;;2.30;0.50;;;;;;;24.52;40.91;100596.56;10569011;28;20044;-75
2022/07/17 07:58:05;;;;;;;2.75;0.40;;;;;;;23.95;41.57;100577.91;10570787;28;20430;-75
2022/07/17 08:03:07;;;;;;;0.67;0.40;;;;;;;24.22;40.61;100578.81;10564980;28;20036;-75
2022/07/17 08:08:09;;;;;;;0.90;0.68;;;;;;;24.82;39.65;100576.97;10553789;28;21023;-75
2022/07/17 08:13:12;;;;;;;0.88;0.50;;;;;;;25.06;39.50;100584.16;10571560;28;20537;-75
2022/07/17 08:18:14;;;;;;;0.68;0.50;;;;;;;25.15;38.58;100575.41;10571169;28;20521;-75
2022/07/17 08:23:16;;;;;;;0.60;0.60;;;;;;;25.25;37.79;100569.94;10554610;28;20040;-72
2022/07/17 08:28:18;;;;;;;1.35;0.47;;;;;;;25.04;38.29;100578.09;10536932;28;20044;-73
2022/07/17 08:33:21;;;;;;;0.60;0.50;;;;;;;25.15;37.28;100575.41;10569826;28;20553;-72
2022/07/17 08:38:24;;;;;;;0.40;0.40;;;;;;;24.96;37.44;100567.94;10564678;28;20384;-72
2022/07/17 08:43:26;;;;;;;0.90;0.40;;;;;;;24.80;37.99;100564.50;10569936;28;20051;-72
2022/07/17 08:48:30;;;;;;;2.92;0.63;;;;;;;24.60;38.25;100567.41;10527474;28;20047;-73
2022/07/17 08:53:32;;;;;;;2.60;0.70;;;;;;;24.79;39.02;100568.50;10551296;28;20149;-73
2022/07/17 08:58:36;;;;;;;1.58;0.30;;;;;;;24.28;39.22;100577.28;10549405;28;20047;-74
2022/07/17 09:03:41;;;;;;;0.98;0.30;;;;;;;24.08;39.93;100568.16;10558683;28;20036;-74
2022/07/17 09:08:44;;;;;;;2.38;0.50;;;;;;;23.74;40.28;100559.53;10550144;28;20036;-74
2022/07/17 09:13:46;;;;;;;0.57;0.57;;;;;;;24.00;40.78;100558.81;10551062;28;20032;-75
2022/07/17 09:18:53;;;;;;;0.47;0.47;;;;;;;24.49;38.57;100560.06;10571996;28;20062;-73
2022/07/17 09:24:06;;;;;;;0.45;0.35;;;;;;;24.59;38.95;100565.00;10538520;28;20434;-74
2022/07/17 09:29:11;;;;;;;1.02;0.65;;;;;;;24.36;39.06;100559.44;10573173;28;20039;-74
2022/07/17 09:34:17;;;;;;;0.47;0.40;;;;;;;23.73;38.63;100557.94;10571304;28;20529;-74
2022/07/17 09:39:20;;;;;;;0.80;0.53;;;;;;;23.13;38.60;100556.72;10552102;28;20048;-74
2022/07/17 09:44:22;;;;;;;0.43;0.38;;;;;;;22.47;40.34;100552.03;10573070;28;20036;-74
2022/07/17 09:49:27;;;;;;;2.25;0.70;;;;;;;22.03;41.61;100548.50;10570964;28;20392;-75
2022/07/17 09:54:31;;;;;;;1.27;0.50;;;;;;;21.94;42.61;100540.31;10568650;28;20040;-76
2022/07/17 09:59:37;;;;;;;0.82;0.55;;;;;;;21.73;43.13;100554.53;10554375;28;20048;-76
2022/07/17 10:04:40;;;;;;;0.60;0.60;;;;;;;21.45;44.33;100567.72;10549356;28;20047;-75
2022/07/17 10:09:43;;;;;;;1.75;0.70;;;;;;;21.04;47.13;100578.09;10535065;28;20035;-76
2022/07/17 10:14:47;;;;;;;0.75;0.75;;;;;;;20.70;47.93;100585.00;10565941;28;20044;-75
2022/07/17 10:19:54;;;;;;;1.02;0.60;;;;;;;20.35;47.91;100587.44;10552478;28;20046;-75
2022/07/17 10:25:04;;;;;;;1.17;0.52;;;;;;;20.05;48.85;100582.06;10543612;28;20039;-75
2022/07/17 10:30:09;;;;;;;1.55;0.50;;;;;;;19.90;49.05;100593.88;10552143;28;20040;-76
2022/07/17 10:35:12;;;;;;;0.45;0.40;;;;;;;19.60;49.47;100592.41;10550026;28;20059;-75
2022/07/17 10:40:28;;;;;;;0.82;0.50;;;;;;;19.22;52.16;100599.75;10548420;28;20052;-74
2022/07/17 10:45:42;;;;;;;2.28;1.10;;;;;;;18.67;53.96;100614.72;10547821;28;20044;-75
2022/07/17 10:51:03;;;;;;;0.80;0.68;;;;;;;18.44;55.51;100613.34;10549535;28;20059;-75
2022/07/17 10:56:08;;;;;;;1.42;0.98;;;;;;;18.50;55.34;100605.63;10547747;28;20041;-75
2022/07/17 11:01:18;;;;;;;0.88;0.60;;;;;;;18.49;54.67;100607.59;10526853;28;20037;-76
2022/07/17 11:06:27;;;;;;;1.50;0.70;;;;;;;18.68;54.69;100612.75;10548825;28;20388;-75
2022/07/17 11:11:40;;;;;;;3.45;0.43;;;;;;;18.80;53.08;100612.03;10544757;28;20054;-76
2022/07/17 11:16:49;;;;;;;1.05;0.52;;;;;;;18.83;52.66;100605.78;10568956;28;20044;-75
2022/07/17 11:21:54;;;;;;;0.57;0.50;;;;;;;18.89;53.19;100610.81;10568986;28;20450;-75
2022/07/17 11:26:56;;;;;;;1.17;0.75;;;;;;;19.00;53.78;100607.63;10534541;28;20133;-74
2022/07/17 11:31:58;;;;;;;0.63;0.50;;;;;;;18.78;52.91;100609.59;10591030;28;20059;-74
2022/07/17 11:37:05;;;;;;;0.30;0.30;;;;;;;18.45;54.60;100603.06;10570198;28;20031;-74
2022/07/17 11:42:10;;;;;;;2.03;0.50;;;;;;;18.42;54.68;100604.53;10563487;28;20037;-74
2022/07/17 11:47:23;;;;;;;0.85;0.20;;;;;;;18.44;54.78;100599.47;10549250;28;20059;-73
2022/07/17 11:52:26;;;;;;;1.27;0.20;;;;;;;18.43;55.23;100602.56;10541341;28;20047;-74
2022/07/17 11:57:28;;;;;;;0.30;0.30;;;;;;;18.44;55.40;100596.69;10574945;28;20056;-73
2022/07/17 12:02:31;;;;;;;1.25;0.45;;;;;;;18.44;55.86;100605.03;10576175;28;20040;-73
2022/07/17 12:07:41;;;;;;;1.95;0.40;;;;;;;18.30;56.80;100596.91;10557976;28;20494;-73
2022/07/17 12:12:57;;;;;;;0.55;0.47;;;;;;;18.30;58.42;100599.69;10535424;28;20036;-73
2022/07/17 12:18:00;;;;;;;1.02;0.73;;;;;;;17.92;61.45;100598.88;10545900;28;20066;-73
2022/07/17 12:23:02;;;;;;;0.57;0.55;;;;;;;17.69;63.57;100599.06;10538379;28;20048;-74
2022/07/17 12:28:05;;;;;;;0.80;0.70;;;;;;;17.65;65.23;100595.28;10571942;28;20067;-73
2022/07/17 12:33:08;;;;;;;0.60;0.55;;;;;;;17.85;66.13;100593.00;10573773;28;20062;-76
2022/07/17 12:38:10;;;;;;;0.80;0.45;;;;;;;17.97;63.49;100590.34;10558870;28;20047;-78
2022/07/17 12:43:13;;;;;;;1.75;0.73;;;;;;;17.94;62.88;100582.69;10547806;28;20047;-77
2022/07/17 12:48:15;;;;;;;1.15;0.80;;;;;;;17.94;62.38;100582.69;10533246;28;20044;-76
2022/07/17 12:53:18;;;;;;;0.50;0.50;;;;;;;18.14;61.75;100570.84;10548623;28;20058;-77
2022/07/17 12:58:21;;;;;;;0.40;0.40;;;;;;;18.14;61.71;100572.81;10585968;28;20046;-75
2022/07/17 13:03:23;;;;;;;0.57;0.50;;;;;;;18.25;61.51;100574.88;10503663;28;20419;-76
2022/07/17 13:08:28;;;;;;;0.70;0.60;;;;;;;18.28;61.40;100574.22;10556783;28;20040;-74
2022/07/17 13:13:30;;;;;;;0.40;0.40;;;;;;;18.37;61.44;100568.59;10532248;28;20044;-74
2022/07/17 13:18:32;;;;;;;0.50;0.50;;;;;;;18.39;61.15;100574.63;10558369;28;20047;-78
2022/07/17 13:23:35;;;;;;;0.98;0.77;;;;;;;18.43;60.96;100575.59;10572891;28;20536;-77
2022/07/17 13:28:37;;;;;;;2.00;0.75;;;;;;;18.34;61.29;100583.97;10553843;28;20521;-74
2022/07/17 13:33:40;;;;;;;1.17;0.60;;;;;;;18.42;61.13;100584.28;10569658;28;20040;-85
2022/07/17 13:38:42;;;;;;;0.55;0.52;;;;;;;18.37;61.35;100583.31;10554035;28;20056;-75
2022/07/17 13:43:45;;;;;;;0.55;0.55;;;;;;;18.22;61.61;100581.13;10582089;28;20048;-80
2022/07/17 13:48:48;;;;;;;0.40;0.40;;;;;;;18.10;61.97;100572.66;10578476;28;20069;-82
2022/07/17 13:53:50;;;;;;;0.75;0.70;;;;;;;18.10;62.79;100578.22;10583505;28;20565;-80
2022/07/17 13:58:53;;;;;;;0.68;0.65;;;;;;;18.13;63.34;100576.72;10582238;28;20044;-82
2022/07/17 14:03:55;;;;;;;0.65;0.50;;;;;;;18.18;63.56;100570.97;10574947;28;20047;-90
2022/07/17 14:08:58;;;;;;;0.55;0.52;;;;;;;18.15;63.99;100568.88;10570948;28;20043;-77
2022/07/17 14:14:00;;;;;;;0.50;0.50;;;;;;;18.00;64.40;100567.47;10569600;28;20044;-74
2022/07/17 14:19:02;;;;;;;1.92;0.60;;;;;;;17.95;65.26;100575.97;10562756;28;20047;-73
2022/07/17 14:24:05;;;;;;;2.22;0.70;;;;;;;17.95;65.33;100575.97;10583249;28;20052;-72
2022/07/17 14:29:10;;;;;;;0.68;0.60;;;;;;;17.91;65.45;100591.69;10568337;28;20402;-73
2022/07/17 14:34:13;;;;;;;1.63;1.00;;;;;;;17.85;66.99;100598.53;10565460;28;20048;-72
2022/07/17 14:39:15;;;;;;;0.80;0.70;;;;;;;17.65;68.61;100603.63;10574932;28;20055;-71
2022/07/17 14:49:59;;;;;;;0.95;0.82;;;;;;;17.37;69.92;100622.59;10179856;29;20072;-86
2022/07/17 14:55:02;;;;;;;0.50;0.50;;;;;;;17.21;69.98;100615.09;10170935;29;20048;-85
2022/07/17 15:00:05;;;;;;;0.68;0.57;;;;;;;17.09;70.59;100610.19;10195172;29;20059;-84
2022/07/17 15:05:37;;;;;;;4.03;0.60;;;;;;;16.94;71.77;100619.81;10199877;29;20495;-86
2022/07/17 15:10:41;;;;;;;1.65;0.90;;;;;;;16.77;73.17;100625.31;10172991;29;20040;-83
2022/07/17 15:15:45;;;;;;;2.35;0.75;;;;;;;16.72;73.94;100622.69;10206319;29;20044;-88
2022/07/17 15:20:48;;;;;;;2.60;0.75;;;;;;;16.76;74.53;100615.38;10188022;29;20048;-87
2022/07/17 15:25:50;;;;;;;1.20;0.68;;;;;;;16.55;75.17;100651.97;10203275;29;20435;-85
2022/07/17 15:30:52;;;;;;;0.82;0.60;;;;;;;16.21;78.02;100672.03;10214880;29;20044;-86
2022/07/17 15:36:01;;;;;;;1.40;0.90;;;;;;;15.78;80.23;100676.47;10210453;29;20056;-82
2022/07/17 15:41:03;;;;;;;2.00;0.90;;;;;;;15.38;80.65;100657.75;10215287;29;20044;-83
2022/07/17 15:46:08;;;;;;;0.55;0.55;;;;;;;15.13;81.45;100657.53;10195645;29;20070;-82
2022/07/17 15:51:11;;;;;;;0.88;0.43;;;;;;;15.10;82.22;100650.69;10211956;29;20520;-86
2022/07/17 15:56:13;;;;;;;0.60;0.57;;;;;;;15.13;84.19;100638.19;10215202;29;20047;-85
2022/07/17 16:01:16;;;;;;;1.15;0.75;;;;;;;15.12;84.64;100636.56;10185669;29;20074;-86
2022/07/17 16:06:18;;;;;;;0.52;0.50;;;;;;;15.14;85.49;100632.34;10193386;29;20045;-85
2022/07/17 16:11:20;;;;;;;0.60;0.60;;;;;;;15.12;85.25;100642.91;10172477;29;20044;-84
2022/07/17 16:16:23;;;;;;;0.77;0.60;;;;;;;15.11;85.17;100654.28;10210229;29;20047;-88
2022/07/17 16:21:29;;;;;;;0.82;0.60;;;;;;;15.01;86.38;100664.41;10217649;29;20252;-84
2022/07/17 16:27:05;;;;;;;0.50;0.50;;;;;;;14.88;87.17;100664.44;10193192;29;20039;-88
2022/07/17 16:32:34;;;;;;;1.23;0.68;;;;;;;14.85;87.36;100654.00;10194594;29;20051;-91
2022/07/17 16:37:36;;;;;;;0.73;0.40;;;;;;;14.91;87.59;100648.06;10193008;29;20395;-85
2022/07/17 16:42:42;;;;;;;0.40;0.40;;;;;;;15.00;88.33;100653.69;10209055;29;20077;-92
2022/07/17 16:47:44;;;;;;;1.27;0.77;;;;;;;15.09;88.04;100646.28;10195669;29;20060;-90
2022/07/17 16:52:50;;;;;;;0.77;0.70;;;;;;;15.33;88.74;100655.13;10195723;29;20074;-89
2022/07/17 16:57:52;;;;;;;1.08;0.80;;;;;;;15.38;88.27;100652.22;10192375;29;20033;-88
2022/07/17 17:02:55;;;;;;;0.73;0.73;;;;;;;15.44;87.93;100663.97;10184613;29;20063;-87
2022/07/17 17:07:58;;;;;;;0.95;0.65;;;;;;;15.41;86.94;100661.84;10207270;29;20407;-87
2022/07/17 17:13:00;;;;;;;1.15;0.80;;;;;;;15.39;85.80;100658.56;10167463;29;20075;-87
2022/07/17 17:18:03;;;;;;;0.93;0.70;;;;;;;15.42;84.93;100663.47;10208866;29;20397;-87
2022/07/17 17:23:08;;;;;;;1.27;0.50;;;;;;;15.34;83.64;100665.06;10207817;29;20066;-87
2022/07/17 17:28:11;;;;;;;0.60;0.60;;;;;;;15.24;83.07;100664.47;10204488;29;20535;-87
2022/07/17 17:33:13;;;;;;;0.95;0.63;;;;;;;15.16;83.14;100665.22;10200597;29;20052;-86
2022/07/17 17:38:16;;;;;;;1.77;0.60;;;;;;;15.15;82.23;100669.09;10197142;29;20059;-83
2022/07/17 17:43:18;;;;;;;1.10;0.60;;;;;;;15.00;81.30;100673.84;10195329;29;20032;-83
2022/07/17 17:48:21;;;;;;;0.40;0.40;;;;;;;14.95;82.01;100665.66;10190932;29;20052;-83
2022/07/17 17:53:23;;;;;;;0.40;0.40;;;;;;;14.96;81.82;100672.00;10181427;29;20041;-83
2022/07/17 17:58:25;;;;;;;0.75;0.45;;;;;;;14.96;81.38;100672.00;10182724;29;20044;-83
2022/07/17 18:03:28;;;;;;;1.63;0.73;;;;;;;14.90;81.40;100671.28;10192522;29;20209;-83
2022/07/17 18:08:31;;;;;;;0.70;0.70;;;;;;;14.90;81.33;100674.06;10188008;29;20052;-82
2022/07/17 18:13:34;;;;;;;0.57;0.57;;;;;;;14.92;81.16;100682.84;10187808;29;20049;-83
2022/07/17 18:18:38;;;;;;;0.50;0.50;;;;;;;14.86;81.66;100686.03;10161210;29;20040;-82
2022/07/17 18:23:44;;;;;;;0.50;0.50;;;;;;;14.73;80.59;100690.44;10193041;29;20044;-84
2022/07/17 18:28:49;;;;;;;0.50;0.50;;;;;;;14.67;80.52;100691.69;10202753;29;20475;-87
2022/07/17 18:33:52;;;;;;;2.88;1.05;;;;;;;14.63;79.51;100693.41;10167786;29;20062;-83
2022/07/17 18:38:54;;;;;;;1.40;0.73;;;;;;;14.70;80.08;100705.69;10188807;29;20499;-84
2022/07/17 18:43:57;;;;;;;0.88;0.60;;;;;;;14.80;80.13;100701.09;10177301;29;20048;-84
2022/07/17 18:49:00;;;;;;;1.33;0.60;;;;;;;14.85;80.27;100706.50;10201500;29;20060;-86
2022/07/17 18:54:03;;;;;;;1.08;0.77;;;;;;;14.82;80.61;100721.75;10186930;29;20059;-85
2022/07/17 18:59:05;;;;;;;0.95;0.70;;;;;;;14.75;81.11;100738.75;10171950;29;20051;-84
2022/07/17 19:04:08;;;;;;;1.27;0.47;;;;;;;14.43;81.83;100752.59;10188830;29;20127;-84
2022/07/17 19:09:14;;;;;;;0.90;0.55;;;;;;;14.13;82.64;100751.19;10191775;29;20048;-85
2022/07/17 19:14:16;;;;;;;1.02;0.75;;;;;;;13.84;83.72;100767.94;10181754;29;20055;-86
2022/07/17 19:19:20;;;;;;;0.52;0.52;;;;;;;13.74;84.60;100779.94;10161789;29;20044;-84
2022/07/17 19:24:24;;;;;;;1.08;0.63;;;;;;;13.57;85.03;100771.38;10194793;29;20044;-83
2022/07/17 19:29:26;;;;;;;2.00;0.57;;;;;;;13.44;85.96;100772.94;10193302;29;20508;-85
2022/07/17 19:34:28;;;;;;;1.58;0.60;;;;;;;13.32;85.73;100771.72;10202523;29;20428;-84
2022/07/17 19:39:31;;;;;;;0.60;0.40;;;;;;;13.30;85.72;100769.25;10203943;29;20048;-86
2022/07/17 19:44:34;;;;;;;0.32;0.25;;;;;;;13.20;85.15;100761.16;10183170;29;20420;-83
2022/07/17 19:49:36;;;;;;;0.95;0.60;;;;;;;13.15;85.40;100766.66;10190594;29;20056;-85
2022/07/17 19:54:39;;;;;;;0.68;0.40;;;;;;;13.04;84.66;100752.22;10207890;29;20066;-84
2022/07/17 19:59:41;;;;;;;0.38;0.38;;;;;;;13.03;84.80;100758.03;10204194;29;20040;-84
2022/07/17 20:04:44;;;;;;;0.43;0.32;;;;;;;12.97;85.03;100760.00;10210941;29;20036;-86
2022/07/17 20:09:46;;;;;;;0.50;0.40;;;;;;;13.05;85.58;100758.56;10208343;29;20432;-85
2022/07/17 20:14:49;;;;;;;1.27;0.45;;;;;;;13.12;85.61;100748.81;10208348;29;20040;-85
2022/07/17 20:20:15;;;;;;;0.40;0.30;;;;;;;13.12;85.53;100737.78;10204649;29;20135;-83
2022/07/17 20:25:18;;;;;;;0.73;0.50;;;;;;;13.11;86.02;100740.84;10203184;29;20055;-85
2022/07/17 20:30:20;;;;;;;0.40;0.40;;;;;;;13.07;86.13;100745.31;10206894;29;20047;-84
2022/07/17 20:35:22;;;;;;;0.30;0.30;;;;;;;13.11;85.71;100740.84;10202237;29;20047;-81
2022/07/17 20:40:25;;;;;;;0.47;0.47;;;;;;;13.14;86.26;100748.50;10205903;29;20047;-85
2022/07/17 20:45:31;;;;;;;4.03;0.70;;;;;;;13.18;86.55;100746.81;10206032;29;20048;-85
2022/07/17 20:50:37;;;;;;;0.60;0.60;;;;;;;13.17;86.76;100748.72;10183503;29;20040;-83
2022/07/17 20:55:41;;;;;;;1.75;0.90;;;;;;;13.16;86.74;100757.28;10207951;29;20496;-84
2022/07/17 21:00:43;;;;;;;0.75;0.70;;;;;;;13.14;87.31;100760.34;10176977;29;20040;-87
2022/07/17 21:05:49;;;;;;;0.95;0.60;;;;;;;13.23;88.04;100768.81;10209389;29;20429;-85
2022/07/17 21:10:55;;;;;;;0.45;0.45;;;;;;;13.30;88.45;100769.25;10204520;29;20048;-84
2022/07/17 21:15:57;;;;;;;0.82;0.60;;;;;;;13.36;88.04;100778.28;10183802;29;20507;-85
2022/07/17 21:21:01;;;;;;;1.10;0.45;;;;;;;13.39;88.51;100778.53;10193582;29;20412;-85
2022/07/17 21:26:04;;;;;;;0.50;0.50;;;;;;;13.35;87.84;100782.97;10187295;29;20396;-86
2022/07/17 21:31:07;;;;;;;0.90;0.50;;;;;;;13.43;87.96;100801.63;10203724;29;20059;-85
2022/07/17 21:36:11;;;;;;;0.77;0.50;;;;;;;13.43;88.36;100801.63;10197068;29;20043;-85
2022/07/17 21:41:14;;;;;;;0.80;0.50;;;;;;;13.39;88.10;100792.31;10203535;29;20048;-85
2022/07/17 21:46:20;;;;;;;1.05;0.50;;;;;;;13.41;87.08;100789.25;10198803;29;20060;-84
2022/07/17 21:51:23;;;;;;;0.65;0.50;;;;;;;13.35;86.99;100798.69;10197638;29;20049;-84
2022/07/17 21:56:26;;;;;;;0.52;0.52;;;;;;;13.39;87.49;100792.31;10199064;29;20047;-81
2022/07/17 22:01:28;;;;;;;0.55;0.50;;;;;;;13.33;87.57;100798.97;10200265;29;20054;-86
2022/07/17 22:06:31;;;;;;;0.98;0.60;;;;;;;13.37;87.86;100802.81;10162066;29;20052;-83
2022/07/17 22:11:34;;;;;;;1.25;0.60;;;;;;;13.43;88.72;100807.13;10203442;29;20047;-82
2022/07/17 22:16:37;;;;;;;0.50;0.50;;;;;;;13.45;88.75;100804.91;10206695;29;20515;-82
2022/07/17 22:21:40;;;;;;;0.57;0.57;;;;;;;13.37;88.32;100824.03;10202660;29;20051;-83
2022/07/17 22:26:43;;;;;;;1.00;0.60;;;;;;;13.31;88.53;100815.00;10187923;29;20050;-85
2022/07/17 22:31:45;;;;;;;1.25;0.57;;;;;;;13.27;88.43;100819.47;10204415;29;20055;-85
2022/07/17 22:36:48;;;;;;;0.30;0.30;;;;;;;13.30;88.73;100810.59;10184615;29;20050;-84
2022/07/17 22:41:50;;;;;;;0.65;0.38;;;;;;;13.28;88.38;100812.84;10192569;29;20052;-85
2022/07/17 22:46:52;;;;;;;1.50;0.50;;;;;;;13.24;88.79;100818.13;10184682;29;20052;-87
2022/07/17 22:51:55;;;;;;;1.25;0.50;;;;;;;13.27;89.11;100824.97;10170867;29;20048;-87
2022/07/17 22:56:57;;;;;;;0.47;0.38;;;;;;;13.25;89.16;100827.22;10200293;29;20052;-86
2022/07/17 23:02:00;;;;;;;0.30;0.30;;;;;;;13.23;89.28;100830.25;10199427;29;20044;-86
2022/07/17 23:07:03;;;;;;;2.05;0.50;;;;;;;13.19;89.42;100825.59;10199048;29;20051;-85
2022/07/17 23:12:06;;;;;;;0.30;0.30;;;;;;;13.16;89.56;100839.94;10199685;29;20048;-84
2022/07/17 23:17:08;;;;;;;3.67;0.77;;;;;;;13.10;89.41;100844.72;10198515;29;20051;-84
2022/07/17 23:22:11;;;;;;;0.40;0.40;;;;;;;13.14;89.62;100836.66;10202008;29;20048;-85